createdAt,value
2017-09-08T00:00:02.280Z,0
2017-09-08T00:01:03.205Z,0
2017-09-08T00:02:03.878Z,0
2017-09-08T00:03:04.548Z,0
2017-09-08T00:04:05.237Z,0
2017-09-08T00:05:05.909Z,0
2017-09-08T00:06:06.832Z,0
2017-09-08T00:07:07.507Z,0
2017-09-08T00:08:08.188Z,0
2017-09-08T00:09:08.860Z,0
2017-09-08T00:10:09.534Z,0
2017-09-08T00:11:10.455Z,0
2017-09-08T00:12:11.127Z,0
2017-09-08T00:13:11.801Z,0
2017-09-08T00:14:12.484Z,0
2017-09-08T00:15:13.163Z,0
2017-09-08T00:16:14.084Z,0
2017-09-08T00:17:14.770Z,0
2017-09-08T00:18:15.434Z,0
2017-09-08T00:19:16.142Z,0
2017-09-08T00:20:16.781Z,0
2017-09-08T00:21:17.709Z,0
2017-09-08T00:22:18.383Z,0
2017-09-08T00:23:19.079Z,0
2017-09-08T00:24:19.734Z,0
2017-09-08T00:25:20.407Z,0
2017-09-08T00:26:21.339Z,0
2017-09-08T00:27:22.016Z,0
2017-09-08T00:28:22.699Z,0
2017-09-08T00:29:23.373Z,0
2017-09-08T00:30:24.048Z,0
2017-09-08T00:31:24.972Z,0
2017-09-08T00:32:25.650Z,0
2017-09-08T00:33:26.322Z,0
2017-09-08T00:34:26.993Z,0
2017-09-08T00:35:27.668Z,0
2017-09-08T00:36:28.593Z,0
2017-09-08T00:37:29.272Z,0
2017-09-08T00:38:29.944Z,0
2017-09-08T00:39:30.616Z,0
2017-09-08T00:40:31.287Z,0
2017-09-08T00:41:32.207Z,0
2017-09-08T00:42:32.881Z,0
2017-09-08T00:43:33.552Z,0
2017-09-08T00:44:34.224Z,0
2017-09-08T00:45:34.897Z,0
2017-09-08T00:46:35.818Z,0
2017-09-08T00:47:36.490Z,0
2017-09-08T00:48:37.161Z,0
2017-09-08T00:49:37.830Z,0
2017-09-08T00:50:38.510Z,0
2017-09-08T00:51:39.437Z,0
2017-09-08T00:52:40.110Z,0
2017-09-08T00:53:40.781Z,0
2017-09-08T00:54:41.457Z,0
2017-09-08T00:55:42.133Z,0
2017-09-08T00:56:43.053Z,0
2017-09-08T00:57:43.726Z,0
2017-09-08T00:58:44.401Z,0
2017-09-08T00:59:45.073Z,0
2017-09-08T01:00:45.744Z,0
2017-09-08T01:01:46.414Z,0
2017-09-08T01:02:47.086Z,0
2017-09-08T01:03:47.757Z,0
2017-09-08T01:04:48.430Z,0
2017-09-08T01:05:49.107Z,0
2017-09-08T01:06:50.035Z,0
2017-09-08T01:07:50.696Z,0
2017-09-08T01:08:51.377Z,0
2017-09-08T01:09:52.080Z,0
2017-09-08T01:10:52.722Z,0
2017-09-08T01:11:53.649Z,0
2017-09-08T01:12:54.321Z,0
2017-09-08T01:13:54.989Z,0
2017-09-08T01:14:55.661Z,0
2017-09-08T01:15:56.335Z,0
2017-09-08T01:16:57.263Z,0
2017-09-08T01:17:57.940Z,0
2017-09-08T01:18:58.615Z,0
2017-09-08T01:19:59.294Z,0
2017-09-08T01:20:59.972Z,0
2017-09-08T01:22:00.927Z,0
2017-09-08T01:23:01.590Z,0
2017-09-08T01:24:02.260Z,0
2017-09-08T01:25:02.940Z,0
2017-09-08T01:26:03.609Z,0
2017-09-08T01:27:04.531Z,0
2017-09-08T01:28:05.213Z,0
2017-09-08T01:29:05.885Z,0
2017-09-08T01:30:06.556Z,0
2017-09-08T01:31:07.230Z,0
2017-09-08T01:32:08.154Z,0
2017-09-08T01:33:08.827Z,0
2017-09-08T01:34:09.500Z,0
2017-09-08T01:35:10.173Z,0
2017-09-08T01:36:10.849Z,0
2017-09-08T01:37:11.771Z,0
2017-09-08T01:38:12.444Z,0
2017-09-08T01:39:13.115Z,0
2017-09-08T01:40:13.790Z,0
2017-09-08T01:41:14.460Z,0
2017-09-08T01:42:15.380Z,0
2017-09-08T01:43:16.052Z,0
2017-09-08T01:44:16.724Z,0
2017-09-08T01:45:17.399Z,0
2017-09-08T01:46:18.073Z,0
2017-09-08T01:47:18.995Z,0
2017-09-08T01:48:19.670Z,0
2017-09-08T01:49:20.338Z,0
2017-09-08T01:50:21.009Z,0
2017-09-08T01:51:21.680Z,0
2017-09-08T01:52:22.607Z,0
2017-09-08T01:53:23.286Z,0
2017-09-08T01:54:23.958Z,0
2017-09-08T01:55:24.630Z,0
2017-09-08T01:56:25.307Z,0
2017-09-08T01:57:26.230Z,0
2017-09-08T01:58:26.903Z,0
2017-09-08T01:59:27.574Z,0
2017-09-08T02:00:28.245Z,0
2017-09-08T02:01:28.924Z,0
2017-09-08T02:02:29.848Z,0
2017-09-08T02:03:30.519Z,0
2017-09-08T02:04:31.193Z,0
2017-09-08T02:05:31.862Z,0
2017-09-08T02:06:32.533Z,0
2017-09-08T02:07:33.463Z,0
2017-09-08T02:08:34.132Z,0
2017-09-08T02:09:34.802Z,0
2017-09-08T02:10:35.472Z,0
2017-09-08T02:11:36.145Z,0
2017-09-08T02:12:37.067Z,0
2017-09-08T02:13:37.738Z,0
2017-09-08T02:14:38.409Z,0
2017-09-08T02:15:39.081Z,0
2017-09-08T02:16:39.756Z,0
2017-09-08T02:17:40.681Z,0
2017-09-08T02:18:41.358Z,0
2017-09-08T02:19:42.031Z,0
2017-09-08T02:20:42.706Z,0
2017-09-08T02:21:43.374Z,0
2017-09-08T02:22:44.299Z,0
2017-09-08T02:23:44.978Z,0
2017-09-08T02:24:45.650Z,0
2017-09-08T02:25:46.323Z,0
2017-09-08T02:26:46.995Z,0
2017-09-08T02:27:47.918Z,0
2017-09-08T02:28:48.597Z,0
2017-09-08T02:29:49.267Z,0
2017-09-08T02:30:49.939Z,0
2017-09-08T02:31:50.613Z,0
2017-09-08T02:32:51.537Z,0
2017-09-08T02:33:52.219Z,0
2017-09-08T02:34:52.889Z,0
2017-09-08T02:35:53.560Z,0
2017-09-08T02:36:54.234Z,0
2017-09-08T02:37:55.155Z,0
2017-09-08T02:38:55.828Z,0
2017-09-08T02:39:56.500Z,0
2017-09-08T02:40:57.177Z,0
2017-09-08T02:41:57.854Z,0
2017-09-08T02:42:58.782Z,0
2017-09-08T02:43:59.456Z,0
2017-09-08T02:45:00.126Z,0
2017-09-08T02:46:00.799Z,0
2017-09-08T02:47:01.470Z,0
2017-09-08T02:48:02.398Z,0
2017-09-08T02:49:03.069Z,0
2017-09-08T02:50:03.737Z,0
2017-09-08T02:51:04.417Z,0
2017-09-08T02:52:05.089Z,0
2017-09-08T02:53:06.009Z,0
2017-09-08T02:54:06.682Z,0
2017-09-08T02:55:07.355Z,0
2017-09-08T02:56:08.026Z,0
2017-09-08T02:57:08.698Z,0
2017-09-08T02:58:09.621Z,0
2017-09-08T02:59:10.292Z,0
2017-09-08T03:00:10.995Z,0
2017-09-08T03:01:11.636Z,0
2017-09-08T03:02:12.308Z,0
2017-09-08T03:03:13.230Z,0
2017-09-08T03:04:13.901Z,0
2017-09-08T03:05:14.574Z,0
2017-09-08T03:06:15.244Z,0
2017-09-08T03:07:15.916Z,0
2017-09-08T03:08:16.838Z,0
2017-09-08T03:09:17.509Z,0
2017-09-08T03:10:18.178Z,0
2017-09-08T03:11:18.854Z,0
2017-09-08T03:12:19.527Z,0
2017-09-08T03:13:20.452Z,0
2017-09-08T03:14:21.123Z,0
2017-09-08T03:15:21.796Z,0
2017-09-08T03:16:22.466Z,0
2017-09-08T03:17:23.136Z,0
2017-09-08T03:18:24.058Z,0
2017-09-08T03:19:24.730Z,0
2017-09-08T03:20:25.403Z,0
2017-09-08T03:21:26.075Z,0
2017-09-08T03:22:26.749Z,0
2017-09-08T03:23:27.671Z,0
2017-09-08T03:24:28.343Z,0
2017-09-08T03:25:29.017Z,0
2017-09-08T03:26:29.696Z,0
2017-09-08T03:27:30.367Z,0
2017-09-08T03:28:31.290Z,0
2017-09-08T03:29:31.960Z,0
2017-09-08T03:30:32.638Z,0
2017-09-08T03:31:33.307Z,0
2017-09-08T03:32:33.977Z,0
2017-09-08T03:33:34.904Z,0
2017-09-08T03:34:35.578Z,0
2017-09-08T03:35:36.249Z,0
2017-09-08T03:36:36.925Z,0
2017-09-08T03:37:37.604Z,0
2017-09-08T03:38:38.528Z,0
2017-09-08T03:39:39.201Z,0
2017-09-08T03:40:39.874Z,0
2017-09-08T03:41:40.544Z,0
2017-09-08T03:42:41.225Z,0
2017-09-08T03:43:42.150Z,0
2017-09-08T03:44:42.826Z,0
2017-09-08T03:45:43.501Z,0
2017-09-08T03:46:44.173Z,0
2017-09-08T03:47:44.848Z,0
2017-09-08T03:48:45.774Z,0
2017-09-08T03:49:46.449Z,0
2017-09-08T03:50:47.130Z,0
2017-09-08T03:51:47.797Z,0
2017-09-08T03:52:48.472Z,0
2017-09-08T03:53:49.393Z,0
2017-09-08T03:54:50.066Z,0
2017-09-08T03:55:50.742Z,0
2017-09-08T03:56:51.413Z,0
2017-09-08T03:57:52.085Z,0
2017-09-08T03:58:53.007Z,0
2017-09-08T03:59:53.677Z,0
2017-09-08T04:00:54.349Z,0
2017-09-08T04:01:55.022Z,0
2017-09-08T04:02:55.695Z,0
2017-09-08T04:03:56.618Z,0
2017-09-08T04:04:57.297Z,0
2017-09-08T04:05:57.970Z,0
2017-09-08T04:06:58.649Z,0
2017-09-08T04:07:59.320Z,0
2017-09-08T04:09:00.243Z,0
2017-09-08T04:10:00.918Z,0
2017-09-08T04:11:01.593Z,0
2017-09-08T04:12:02.262Z,0
2017-09-08T04:13:02.928Z,0
2017-09-08T04:14:03.857Z,0
2017-09-08T04:15:04.530Z,0
2017-09-08T04:16:05.205Z,0
2017-09-08T04:17:05.873Z,0
2017-09-08T04:18:06.549Z,0
2017-09-08T04:19:07.472Z,0
2017-09-08T04:20:08.146Z,0
2017-09-08T04:21:08.817Z,4
2017-09-08T04:22:09.488Z,4
2017-09-08T04:23:10.162Z,4
2017-09-08T04:24:11.084Z,4
2017-09-08T04:25:11.765Z,4
2017-09-08T04:26:12.437Z,4
2017-09-08T04:27:13.114Z,8
2017-09-08T04:28:13.781Z,8
2017-09-08T04:29:14.702Z,8
2017-09-08T04:30:15.385Z,8
2017-09-08T04:31:16.049Z,12
2017-09-08T04:32:16.722Z,16
2017-09-08T04:33:17.398Z,16
2017-09-08T04:34:18.321Z,20
2017-09-08T04:35:18.995Z,24
2017-09-08T04:36:19.667Z,28
2017-09-08T04:37:20.339Z,28
2017-09-08T04:38:21.011Z,36
2017-09-08T04:39:21.934Z,40
2017-09-08T04:40:22.608Z,44
2017-09-08T04:41:23.285Z,52
2017-09-08T04:42:23.959Z,52
2017-09-08T04:43:24.629Z,60
2017-09-08T04:44:25.552Z,64
2017-09-08T04:45:26.226Z,68
2017-09-08T04:46:26.903Z,76
2017-09-08T04:47:27.574Z,84
2017-09-08T04:48:28.256Z,88
2017-09-08T04:49:29.170Z,100
2017-09-08T04:50:29.844Z,108
2017-09-08T04:51:30.519Z,116
2017-09-08T04:52:31.195Z,124
2017-09-08T04:53:31.872Z,136
2017-09-08T04:54:32.851Z,148
2017-09-08T04:55:33.526Z,160
2017-09-08T04:56:34.202Z,180
2017-09-08T04:57:34.877Z,196
2017-09-08T04:58:35.559Z,216
2017-09-08T04:59:36.485Z,228
2017-09-08T05:00:37.161Z,244
2017-09-08T05:01:37.840Z,264
2017-09-08T05:02:38.515Z,280
2017-09-08T05:03:39.192Z,296
2017-09-08T05:04:40.118Z,304
2017-09-08T05:05:40.794Z,320
2017-09-08T05:06:41.473Z,336
2017-09-08T05:07:42.146Z,352
2017-09-08T05:08:42.825Z,380
2017-09-08T05:09:43.753Z,416
2017-09-08T05:10:44.430Z,444
2017-09-08T05:11:45.104Z,460
2017-09-08T05:12:45.780Z,476
2017-09-08T05:13:46.454Z,500
2017-09-08T05:14:47.386Z,524
2017-09-08T05:15:48.062Z,536
2017-09-08T05:16:48.742Z,556
2017-09-08T05:17:49.418Z,580
2017-09-08T05:18:50.094Z,604
2017-09-08T05:19:51.017Z,628
2017-09-08T05:20:51.698Z,664
2017-09-08T05:21:52.374Z,716
2017-09-08T05:22:53.048Z,748
2017-09-08T05:23:53.727Z,768
2017-09-08T05:24:54.650Z,768
2017-09-08T05:25:55.328Z,768
2017-09-08T05:26:56.007Z,776
2017-09-08T05:27:56.684Z,784
2017-09-08T05:28:57.363Z,776
2017-09-08T05:29:58.287Z,780
2017-09-08T05:30:58.964Z,804
2017-09-08T05:31:59.641Z,840
2017-09-08T05:33:00.320Z,860
2017-09-08T05:34:01.009Z,876
2017-09-08T05:35:01.936Z,888
2017-09-08T05:36:02.613Z,888
2017-09-08T05:37:03.286Z,908
2017-09-08T05:38:03.970Z,936
2017-09-08T05:39:04.644Z,940
2017-09-08T05:40:05.573Z,952
2017-09-08T05:41:06.250Z,976
2017-09-08T05:42:06.926Z,976
2017-09-08T05:43:07.606Z,988
2017-09-08T05:44:08.281Z,996
2017-09-08T05:45:09.214Z,992
2017-09-08T05:46:09.889Z,988
2017-09-08T05:47:10.563Z,992
2017-09-08T05:48:11.242Z,1012
2017-09-08T05:49:11.918Z,1028
2017-09-08T05:50:12.843Z,1000
2017-09-08T05:51:13.518Z,1072
2017-09-08T05:52:14.193Z,1076
2017-09-08T05:53:14.869Z,1096
2017-09-08T05:54:15.552Z,1072
2017-09-08T05:55:16.476Z,1076
2017-09-08T05:56:17.156Z,1104
2017-09-08T05:57:17.836Z,1128
2017-09-08T05:58:18.515Z,1112
2017-09-08T05:59:19.194Z,1068
2017-09-08T06:00:20.130Z,1080
2017-09-08T06:01:20.809Z,1040
2017-09-08T06:02:21.489Z,1036
2017-09-08T06:03:22.170Z,1068
2017-09-08T06:04:22.851Z,1096
2017-09-08T06:05:23.776Z,1132
2017-09-08T06:06:24.455Z,1172
2017-09-08T06:07:25.131Z,1160
2017-09-08T06:08:25.811Z,1176
2017-09-08T06:09:26.492Z,1188
2017-09-08T06:10:27.420Z,1228
2017-09-08T06:11:28.098Z,1304
2017-09-08T06:12:28.775Z,1328
2017-09-08T06:13:29.457Z,1428
2017-09-08T06:14:30.132Z,1400
2017-09-08T06:15:31.057Z,1464
2017-09-08T06:16:31.735Z,1500
2017-09-08T06:17:32.415Z,1564
2017-09-08T06:18:33.092Z,1596
2017-09-08T06:19:33.770Z,1724
2017-09-08T06:20:34.696Z,1804
2017-09-08T06:21:35.374Z,1852
2017-09-08T06:22:36.057Z,1972
2017-09-08T06:23:36.737Z,1976
2017-09-08T06:24:37.421Z,2012
2017-09-08T06:25:38.352Z,2020
2017-09-08T06:26:39.024Z,2116
2017-09-08T06:27:39.708Z,2148
2017-09-08T06:28:40.385Z,2096
2017-09-08T06:29:41.070Z,2068
2017-09-08T06:30:42.000Z,2120
2017-09-08T06:31:42.705Z,2188
2017-09-08T06:32:43.353Z,2208
2017-09-08T06:33:44.028Z,2204
2017-09-08T06:34:44.708Z,2260
2017-09-08T06:35:45.634Z,2264
2017-09-08T06:36:46.320Z,2276
2017-09-08T06:37:46.999Z,2404
2017-09-08T06:38:47.678Z,2344
2017-09-08T06:39:48.356Z,2364
2017-09-08T06:40:49.288Z,2480
2017-09-08T06:41:49.965Z,2568
2017-09-08T06:42:50.642Z,2444
2017-09-08T06:43:51.327Z,2424
2017-09-08T06:44:52.006Z,2432
2017-09-08T06:45:52.848Z,2412
2017-09-08T06:46:53.620Z,2316
2017-09-08T06:47:54.305Z,2276
2017-09-08T06:48:54.982Z,2296
2017-09-08T06:49:55.660Z,2404
2017-09-08T06:50:56.588Z,2336
2017-09-08T06:51:57.277Z,2308
2017-09-08T06:52:57.954Z,2436
2017-09-08T06:53:58.634Z,2508
2017-09-08T06:54:59.319Z,2428
2017-09-08T06:56:00.254Z,2324
2017-09-08T06:57:00.934Z,2416
2017-09-08T06:58:01.617Z,2536
2017-09-08T06:59:02.294Z,2644
2017-09-08T07:00:02.975Z,2664
2017-09-08T07:01:03.907Z,2648
2017-09-08T07:02:04.589Z,2692
2017-09-08T07:03:05.270Z,2688
2017-09-08T07:04:05.948Z,2848
2017-09-08T07:05:06.659Z,2844
2017-09-08T07:06:07.557Z,2832
2017-09-08T07:07:08.236Z,2836
2017-09-08T07:08:08.915Z,2868
2017-09-08T07:09:09.602Z,2876
2017-09-08T07:10:10.282Z,2920
2017-09-08T07:11:11.210Z,3040
2017-09-08T07:12:11.887Z,3076
2017-09-08T07:13:12.564Z,2956
2017-09-08T07:14:13.245Z,3044
2017-09-08T07:15:13.923Z,3028
2017-09-08T07:16:14.803Z,2940
2017-09-08T07:17:15.483Z,3092
2017-09-08T07:18:16.158Z,3128
2017-09-08T07:19:16.841Z,3112
2017-09-08T07:20:17.517Z,3136
2017-09-08T07:21:18.445Z,3080
2017-09-08T07:22:19.118Z,3140
2017-09-08T07:23:19.802Z,3256
2017-09-08T07:24:20.480Z,3252
2017-09-08T07:25:21.158Z,3396
2017-09-08T07:26:22.090Z,3244
2017-09-08T07:27:22.768Z,3212
2017-09-08T07:28:23.448Z,3036
2017-09-08T07:29:24.130Z,3064
2017-09-08T07:30:24.816Z,3040
2017-09-08T07:31:25.744Z,2972
2017-09-08T07:32:26.445Z,3240
2017-09-08T07:33:27.122Z,3104
2017-09-08T07:34:27.803Z,2928
2017-09-08T07:35:28.484Z,2952
2017-09-08T07:36:29.171Z,2904
2017-09-08T07:37:29.849Z,2728
2017-09-08T07:38:30.530Z,2804
2017-09-08T07:39:31.208Z,2880
2017-09-08T07:40:31.889Z,2800
2017-09-08T07:41:32.824Z,2768
2017-09-08T07:42:33.504Z,2768
2017-09-08T07:43:34.184Z,2668
2017-09-08T07:44:34.863Z,2836
2017-09-08T07:45:35.541Z,2700
2017-09-08T07:46:36.472Z,2692
2017-09-08T07:47:37.148Z,2656
2017-09-08T07:48:37.828Z,2752
2017-09-08T07:49:38.507Z,2740
2017-09-08T07:50:39.188Z,2832
2017-09-08T07:51:40.120Z,2796
2017-09-08T07:52:40.803Z,2908
2017-09-08T07:53:41.484Z,2992
2017-09-08T07:54:42.167Z,2952
2017-09-08T07:55:42.849Z,3032
2017-09-08T07:56:43.780Z,3060
2017-09-08T07:57:44.461Z,3108
2017-09-08T07:58:45.142Z,3204
2017-09-08T07:59:45.828Z,3268
2017-09-08T08:00:46.508Z,3472
2017-09-08T08:01:47.445Z,3424
2017-09-08T08:02:48.132Z,3456
2017-09-08T08:03:48.808Z,3508
2017-09-08T08:04:49.487Z,3600
2017-09-08T08:05:50.168Z,3640
2017-09-08T08:06:51.115Z,3528
2017-09-08T08:07:51.830Z,3868
2017-09-08T08:08:52.482Z,3808
2017-09-08T08:09:53.160Z,4044
2017-09-08T08:10:53.842Z,3900
2017-09-08T08:11:54.780Z,4196
2017-09-08T08:12:55.461Z,4272
2017-09-08T08:13:56.141Z,4400
2017-09-08T08:14:56.825Z,4488
2017-09-08T08:15:57.502Z,4560
2017-09-08T08:16:58.429Z,4640
2017-09-08T08:17:59.107Z,4692
2017-09-08T08:18:59.792Z,4776
2017-09-08T08:20:00.472Z,4800
2017-09-08T08:21:01.151Z,4804
2017-09-08T08:22:02.078Z,4804
2017-09-08T08:23:02.759Z,4792
2017-09-08T08:24:03.439Z,4736
2017-09-08T08:25:04.124Z,4752
2017-09-08T08:26:04.821Z,4688
2017-09-08T08:27:05.752Z,4604
2017-09-08T08:28:06.431Z,4616
2017-09-08T08:29:07.110Z,4532
2017-09-08T08:30:07.786Z,4492
2017-09-08T08:31:08.469Z,4508
2017-09-08T08:32:09.402Z,4520
2017-09-08T08:33:10.081Z,4516
2017-09-08T08:34:10.766Z,4524
2017-09-08T08:35:11.446Z,4676
2017-09-08T08:36:12.126Z,4844
2017-09-08T08:37:13.055Z,4952
2017-09-08T08:38:13.732Z,5052
2017-09-08T08:39:14.421Z,5188
2017-09-08T08:40:15.103Z,5308
2017-09-08T08:41:15.783Z,5372
2017-09-08T08:42:16.714Z,5448
2017-09-08T08:43:17.393Z,5488
2017-09-08T08:44:18.081Z,5440
2017-09-08T08:45:18.760Z,5412
2017-09-08T08:46:19.442Z,5440
2017-09-08T08:47:20.374Z,5412
2017-09-08T08:48:21.050Z,5388
2017-09-08T08:49:21.733Z,5360
2017-09-08T08:50:22.410Z,5340
2017-09-08T08:51:23.090Z,5260
2017-09-08T08:52:24.024Z,5244
2017-09-08T08:53:24.709Z,5228
2017-09-08T08:54:25.400Z,5164
2017-09-08T08:55:26.069Z,5140
2017-09-08T08:56:26.751Z,5164
2017-09-08T08:57:27.684Z,5208
2017-09-08T08:58:28.363Z,5244
2017-09-08T08:59:29.042Z,5096
2017-09-08T09:00:29.729Z,5276
2017-09-08T09:01:30.408Z,5216
2017-09-08T09:02:31.342Z,5184
2017-09-08T09:03:32.023Z,5120
2017-09-08T09:04:32.715Z,5024
2017-09-08T09:05:33.392Z,4912
2017-09-08T09:06:34.069Z,4884
2017-09-08T09:07:35.006Z,4796
2017-09-08T09:08:35.693Z,4700
2017-09-08T09:09:36.377Z,4564
2017-09-08T09:10:37.057Z,4480
2017-09-08T09:11:37.739Z,4480
2017-09-08T09:12:38.672Z,4492
2017-09-08T09:13:39.354Z,4540
2017-09-08T09:14:40.029Z,4504
2017-09-08T09:15:40.715Z,4528
2017-09-08T09:16:41.398Z,4556
2017-09-08T09:17:42.332Z,4628
2017-09-08T09:18:43.012Z,4532
2017-09-08T09:19:43.693Z,4516
2017-09-08T09:20:44.375Z,4408
2017-09-08T09:21:45.053Z,4308
2017-09-08T09:22:45.980Z,4240
2017-09-08T09:23:46.660Z,4164
2017-09-08T09:24:47.360Z,4100
2017-09-08T09:25:48.044Z,4096
2017-09-08T09:26:48.723Z,3972
2017-09-08T09:27:49.651Z,3960
2017-09-08T09:28:50.338Z,3908
2017-09-08T09:29:51.011Z,3980
2017-09-08T09:30:51.695Z,4024
2017-09-08T09:31:52.378Z,4120
2017-09-08T09:32:53.059Z,4296
2017-09-08T09:33:53.736Z,4444
2017-09-08T09:34:54.414Z,4560
2017-09-08T09:35:55.094Z,4652
2017-09-08T09:36:55.777Z,4728
2017-09-08T09:37:56.711Z,4788
2017-09-08T09:38:57.394Z,4816
2017-09-08T09:39:58.075Z,4840
2017-09-08T09:40:58.754Z,4872
2017-09-08T09:41:59.430Z,4924
2017-09-08T09:43:00.367Z,4956
2017-09-08T09:44:01.044Z,4984
2017-09-08T09:45:01.719Z,5036
2017-09-08T09:46:02.404Z,5092
2017-09-08T09:47:03.090Z,5132
2017-09-08T09:48:04.020Z,5196
2017-09-08T09:49:04.703Z,5352
2017-09-08T09:50:05.387Z,5624
2017-09-08T09:51:06.075Z,5884
2017-09-08T09:52:06.759Z,5884
2017-09-08T09:53:07.686Z,5656
2017-09-08T09:54:08.368Z,5544
2017-09-08T09:55:09.059Z,5368
2017-09-08T09:56:09.740Z,5680
2017-09-08T09:57:10.423Z,5824
2017-09-08T09:58:11.355Z,5752
2017-09-08T09:59:12.038Z,5588
2017-09-08T10:00:12.724Z,5528
2017-09-08T10:01:13.306Z,5492
2017-09-08T10:02:14.082Z,5468
2017-09-08T10:03:15.017Z,5580
2017-09-08T10:04:15.700Z,5652
2017-09-08T10:05:16.379Z,5752
2017-09-08T10:06:17.061Z,5816
2017-09-08T10:07:17.737Z,5968
2017-09-08T10:08:18.667Z,6244
2017-09-08T10:09:19.347Z,6384
2017-09-08T10:10:20.027Z,6268
2017-09-08T10:11:20.709Z,6020
2017-09-08T10:12:21.393Z,5992
2017-09-08T10:13:22.328Z,6004
2017-09-08T10:14:23.008Z,6036
2017-09-08T10:15:23.691Z,6128
2017-09-08T10:16:24.380Z,6264
2017-09-08T10:17:25.062Z,6340
2017-09-08T10:18:25.994Z,6468
2017-09-08T10:19:26.677Z,6468
2017-09-08T10:20:27.360Z,5888
2017-09-08T10:21:28.044Z,5736
2017-09-08T10:22:28.721Z,6024
2017-09-08T10:23:29.652Z,6544
2017-09-08T10:24:30.335Z,5892
2017-09-08T10:25:31.017Z,6896
2017-09-08T10:26:31.705Z,8580
2017-09-08T10:27:32.391Z,9000
2017-09-08T10:28:33.072Z,8704
2017-09-08T10:29:33.754Z,8664
2017-09-08T10:30:34.432Z,9276
2017-09-08T10:31:35.116Z,8964
2017-09-08T10:32:35.803Z,8812
2017-09-08T10:33:36.742Z,8416
2017-09-08T10:34:37.422Z,8364
2017-09-08T10:35:38.106Z,9664
2017-09-08T10:36:38.788Z,9832
2017-09-08T10:37:39.470Z,9656
2017-09-08T10:38:40.148Z,9540
2017-09-08T10:39:40.843Z,9808
2017-09-08T10:40:41.531Z,9812
2017-09-08T10:41:42.217Z,9424
2017-09-08T10:42:42.900Z,9092
2017-09-08T10:43:43.848Z,7656
2017-09-08T10:44:44.531Z,7724
2017-09-08T10:45:45.216Z,8700
2017-09-08T10:46:45.913Z,9756
2017-09-08T10:47:46.593Z,9564
2017-09-08T10:48:47.526Z,10488
2017-09-08T10:49:48.206Z,9764
2017-09-08T10:50:48.886Z,9256
2017-09-08T10:51:49.579Z,9080
2017-09-08T10:52:50.258Z,9700
2017-09-08T10:53:51.192Z,10244
2017-09-08T10:54:51.877Z,10456
2017-09-08T10:55:52.580Z,10576
2017-09-08T10:56:53.265Z,10112
2017-09-08T10:57:53.954Z,9764
2017-09-08T10:58:54.888Z,8688
2017-09-08T10:59:55.576Z,8392
2017-09-08T11:00:56.262Z,8048
2017-09-08T11:01:56.945Z,7840
2017-09-08T11:02:57.637Z,7112
2017-09-08T11:03:58.569Z,7140
2017-09-08T11:04:59.253Z,7448
2017-09-08T11:05:59.932Z,8476
2017-09-08T11:07:00.615Z,8496
2017-09-08T11:08:01.298Z,8316
2017-09-08T11:09:02.227Z,8392
2017-09-08T11:10:02.910Z,8528
2017-09-08T11:11:03.591Z,7016
2017-09-08T11:12:04.281Z,6768
2017-09-08T11:13:04.964Z,7400
2017-09-08T11:14:05.900Z,8308
2017-09-08T11:15:06.584Z,8968
2017-09-08T11:16:07.267Z,8420
2017-09-08T11:17:07.958Z,7636
2017-09-08T11:18:08.635Z,7384
2017-09-08T11:19:09.578Z,6868
2017-09-08T11:20:10.253Z,7124
2017-09-08T11:21:10.941Z,8032
2017-09-08T11:22:11.624Z,9036
2017-09-08T11:23:12.313Z,9728
2017-09-08T11:24:13.247Z,9156
2017-09-08T11:25:13.927Z,9084
2017-09-08T11:26:14.610Z,7976
2017-09-08T11:27:15.292Z,7976
2017-09-08T11:28:15.975Z,8360
2017-09-08T11:29:16.907Z,9584
2017-09-08T11:30:17.587Z,7764
2017-09-08T11:31:18.271Z,7904
2017-09-08T11:32:18.950Z,7952
2017-09-08T11:33:19.630Z,8200
2017-09-08T11:34:20.572Z,11992
2017-09-08T11:35:21.256Z,9660
2017-09-08T11:36:21.942Z,14580
2017-09-08T11:37:22.627Z,33856
2017-09-08T11:38:23.313Z,15264
2017-09-08T11:39:24.242Z,9516
2017-09-08T11:40:24.930Z,10932
2017-09-08T11:41:25.619Z,55424
2017-09-08T11:42:26.304Z,13912
2017-09-08T11:43:26.990Z,16640
2017-09-08T11:44:27.676Z,28960
2017-09-08T11:45:28.358Z,37248
2017-09-08T11:46:29.044Z,56416
2017-09-08T11:47:29.731Z,58016
2017-09-08T11:48:30.424Z,57504
2017-09-08T11:49:31.360Z,54560
2017-09-08T11:50:32.049Z,53504
2017-09-08T11:51:32.735Z,48960
2017-09-08T11:52:33.419Z,24768
2017-09-08T11:53:34.119Z,35968
2017-09-08T11:54:35.058Z,10564
2017-09-08T11:55:35.751Z,10264
2017-09-08T11:56:36.436Z,9260
2017-09-08T11:57:37.121Z,15296
2017-09-08T11:58:37.809Z,9632
2017-09-08T11:59:38.740Z,9416
2017-09-08T12:00:39.430Z,22176
2017-09-08T12:01:40.106Z,9240
2017-09-08T12:02:40.790Z,10004
2017-09-08T12:03:41.474Z,11016
2017-09-08T12:04:42.159Z,13040
2017-09-08T12:05:42.843Z,21792
2017-09-08T12:06:43.529Z,24256
2017-09-08T12:07:44.219Z,44576
2017-09-08T12:08:44.908Z,42656
2017-09-08T12:09:45.847Z,41280
2017-09-08T12:10:46.535Z,40544
2017-09-08T12:11:47.224Z,25504
2017-09-08T12:12:47.910Z,35456
2017-09-08T12:13:48.597Z,27648
2017-09-08T12:14:49.540Z,9372
2017-09-08T12:15:50.225Z,10216
2017-09-08T12:16:50.906Z,8976
2017-09-08T12:17:51.590Z,8164
2017-09-08T12:18:52.272Z,7828
2017-09-08T12:19:52.959Z,8136
2017-09-08T12:20:53.643Z,14204
2017-09-08T12:21:54.335Z,7684
2017-09-08T12:22:55.018Z,7796
2017-09-08T12:23:55.707Z,8304
2017-09-08T12:24:56.648Z,8884
2017-09-08T12:25:57.336Z,9400
2017-09-08T12:26:58.023Z,10212
2017-09-08T12:27:58.706Z,13088
2017-09-08T12:28:59.390Z,12164
2017-09-08T12:30:00.325Z,27072
2017-09-08T12:31:01.016Z,29344
2017-09-08T12:32:01.701Z,27424
2017-09-08T12:33:02.386Z,31488
2017-09-08T12:34:03.081Z,37184
2017-09-08T12:35:03.768Z,45056
2017-09-08T12:36:04.467Z,45280
2017-09-08T12:37:05.232Z,40448
2017-09-08T12:38:05.918Z,37632
2017-09-08T12:39:06.605Z,40608
2017-09-08T12:40:07.290Z,40160
2017-09-08T12:41:07.976Z,39552
2017-09-08T12:42:08.672Z,42336
2017-09-08T12:43:09.359Z,39424
2017-09-08T12:44:10.051Z,28768
2017-09-08T12:45:10.741Z,32416
2017-09-08T12:46:11.434Z,30016
2017-09-08T12:47:12.125Z,28224
2017-09-08T12:48:12.812Z,26912
2017-09-08T12:49:13.501Z,33088
2017-09-08T12:50:14.186Z,17152
2017-09-08T12:51:14.873Z,12412
2017-09-08T12:52:15.822Z,41824
2017-09-08T12:53:16.509Z,28096
2017-09-08T12:54:17.205Z,27008
2017-09-08T12:55:17.902Z,30080
2017-09-08T12:56:18.589Z,11100
2017-09-08T12:57:19.523Z,12572
2017-09-08T12:58:20.210Z,10536
2017-09-08T12:59:20.902Z,10264
2017-09-08T13:00:21.589Z,10492
2017-09-08T13:01:22.279Z,10640
2017-09-08T13:02:23.222Z,10448
2017-09-08T13:03:23.929Z,10488
2017-09-08T13:04:24.608Z,14212
2017-09-08T13:05:25.293Z,10320
2017-09-08T13:06:25.979Z,11988
2017-09-08T13:07:26.925Z,10904
2017-09-08T13:08:27.626Z,12620
2017-09-08T13:09:28.312Z,17920
2017-09-08T13:10:29.002Z,22016
2017-09-08T13:11:29.686Z,13416
2017-09-08T13:12:30.623Z,20896
2017-09-08T13:13:31.316Z,24000
2017-09-08T13:14:32.001Z,49280
2017-09-08T13:15:32.689Z,10772
2017-09-08T13:16:33.376Z,10204
2017-09-08T13:17:34.310Z,11720
2017-09-08T13:18:35.003Z,34720
2017-09-08T13:19:35.695Z,36352
2017-09-08T13:20:36.383Z,36384
2017-09-08T13:21:37.069Z,34112
2017-09-08T13:22:38.008Z,32064
2017-09-08T13:23:38.695Z,32544
2017-09-08T13:24:39.391Z,34144
2017-09-08T13:25:40.076Z,33024
2017-09-08T13:26:40.764Z,28448
2017-09-08T13:27:41.702Z,16448
2017-09-08T13:28:42.389Z,32064
2017-09-08T13:29:43.073Z,30496
2017-09-08T13:30:43.771Z,17376
2017-09-08T13:31:44.459Z,30528
2017-09-08T13:32:45.399Z,28928
2017-09-08T13:33:46.082Z,28256
2017-09-08T13:34:46.766Z,31200
2017-09-08T13:35:47.455Z,25568
2017-09-08T13:36:48.142Z,22944
2017-09-08T13:37:49.085Z,22752
2017-09-08T13:38:49.770Z,23264
2017-09-08T13:39:50.458Z,23808
2017-09-08T13:40:51.151Z,17280
2017-09-08T13:41:51.834Z,16992
2017-09-08T13:42:52.776Z,31072
2017-09-08T13:43:53.480Z,33760
2017-09-08T13:44:54.169Z,39936
2017-09-08T13:45:54.863Z,43776
2017-09-08T13:46:55.571Z,44256
2017-09-08T13:47:56.259Z,45088
2017-09-08T13:48:57.167Z,44672
2017-09-08T13:49:57.864Z,42080
2017-09-08T13:50:58.554Z,42016
2017-09-08T13:51:59.286Z,39520
2017-09-08T13:52:59.984Z,34624
2017-09-08T13:54:00.674Z,18464